Time;durP1;ratioP1;P1;durP2;ratioP2;P2;SDS_P1;SDS_P2;PMS_P1;PMS_P2;Temp;Humidity;BMP_temperature;BMP_pressure;BME280_temperature;BME280_humidity;BME280_pressure;Samples;Min_cycle;Max_cycle;Signal;HPM_P1;HPM_P2
2021/10/03 00:03:12;;;;;;;18.53;16.20;;;;;;;10.04;100.00;100803.84;20907415;28;20653;-61
2021/10/03 00:13:16;;;;;;;20.10;18.00;;;;;;;9.89;100.00;100802.03;20929530;27;20230;-61
2021/10/03 00:23:19;;;;;;;19.93;17.83;;;;;;;9.81;100.00;100812.22;20907464;28;20231;-62
2021/10/03 00:33:22;;;;;;;21.10;18.77;;;;;;;9.75;100.00;100819.59;20904871;28;20310;-60
2021/10/03 00:43:25;;;;;;;20.33;18.17;;;;;;;9.77;100.00;100832.00;20907565;28;20306;-60
2021/10/03 00:53:29;;;;;;;19.33;17.27;;;;;;;9.71;100.00;100823.38;20903926;28;20288;-63
2021/10/03 01:03:31;;;;;;;18.93;16.97;;;;;;;9.69;100.00;100814.59;20962868;28;20710;-60
2021/10/03 01:13:35;;;;;;;21.60;17.37;;;;;;;9.64;100.00;100808.66;20985823;28;20313;-64
2021/10/03 01:23:39;;;;;;;19.17;17.13;;;;;;;9.57;100.00;100804.56;20950602;28;20227;-63
2021/10/03 01:43:43;;;;;;;18.57;16.67;;;;;;;9.49;100.00;100788.13;21062144;27;20639;-62
2021/10/03 01:53:47;;;;;;;18.93;16.67;;;;;;;9.48;100.00;100778.41;21058487;28;20285;-62
2021/10/03 02:03:51;;;;;;;17.83;16.13;;;;;;;9.48;100.00;100764.22;21057775;28;20677;-64
2021/10/03 02:13:53;;;;;;;20.57;18.37;;;;;;;9.46;100.00;100774.97;21045203;28;20602;-65
2021/10/03 02:23:57;;;;;;;20.73;18.63;;;;;;;9.46;100.00;100769.63;20972529;28;20240;-59
2021/10/03 02:34:00;;;;;;;52.67;32.40;;;;;;;9.42;100.00;100768.06;20969919;28;20325;-61
2021/10/03 02:44:05;;;;;;;32.97;25.60;;;;;;;9.39;100.00;100766.44;20994595;28;20230;-62
2021/10/03 02:54:07;;;;;;;32.73;23.73;;;;;;;9.33;100.00;100760.56;21001952;28;20234;-58
2021/10/03 03:04:11;;;;;;;26.47;23.77;;;;;;;9.24;100.00;100769.03;20997073;28;20237;-59
2021/10/03 03:14:13;;;;;;;21.53;19.23;;;;;;;9.23;100.00;100759.31;20996334;28;20226;-57
2021/10/03 03:24:17;;;;;;;20.30;18.20;;;;;;;9.18;100.00;100761.34;20955243;28;20285;-60
2021/10/03 03:34:19;;;;;;;24.10;21.63;;;;;;;9.11;100.00;100754.63;20911803;28;20700;-62
2021/10/03 03:44:23;;;;;;;23.67;19.33;;;;;;;9.01;100.00;100763.09;20911243;28;20252;-57
2021/10/03 03:54:25;;;;;;;17.90;16.00;;;;;;;8.95;100.00;100763.38;20910343;28;20317;-60
2021/10/03 04:04:29;;;;;;;18.67;16.67;;;;;;;8.86;100.00;100758.53;20969754;28;20700;-59
2021/10/03 04:24:30;;;;;;;28.67;20.37;;;;;;;8.72;100.00;100758.34;20834855;28;20632;-60
2021/10/03 04:34:33;;;;;;;23.83;18.60;;;;;;;8.69;100.00;100744.38;20872143;28;20248;-59
2021/10/03 04:44:36;;;;;;;22.70;20.30;;;;;;;8.63;100.00;100740.19;20874613;28;20228;-61
2021/10/03 04:54:38;;;;;;;20.10;17.97;;;;;;;8.71;100.00;100753.09;20808586;28;20245;-60
2021/10/03 05:04:42;;;;;;;24.10;19.33;;;;;;;8.82;100.00;100772.06;20807939;28;20728;-60
2021/10/03 05:14:45;;;;;;;21.17;18.43;;;;;;;8.99;100.00;100785.41;20806453;28;20238;-60
2021/10/03 05:24:49;;;;;;;16.00;14.00;;;;;;;9.32;100.00;100777.47;20810470;28;20314;-60
2021/10/03 05:34:51;;;;;;;15.83;14.40;;;;;;;9.64;100.00;100763.34;20758045;28;20256;-61
2021/10/03 05:44:55;;;;;;;36.93;20.60;;;;;;;9.94;100.00;100760.81;20832077;28;20716;-60
2021/10/03 05:54:57;;;;;;;18.53;16.63;;;;;;;10.22;100.00;100754.88;20831338;28;20270;-60
2021/10/03 06:05:01;;;;;;;20.77;18.27;;;;;;;10.41;100.00;100755.53;20830674;28;20835;-60
2021/10/03 06:15:04;;;;;;;25.67;21.83;;;;;;;10.62;100.00;100763.28;20828538;28;20633;-61
2021/10/03 06:25:09;;;;;;;15.77;14.37;;;;;;;11.24;100.00;100761.38;20828426;28;20220;-64
2021/10/03 06:35:11;;;;;;;15.07;13.53;;;;;;;11.75;100.00;100768.94;20827713;28;20243;-64
2021/10/03 06:45:15;;;;;;;13.73;12.43;;;;;;;11.86;100.00;100758.44;20804284;28;20237;-63
2021/10/03 06:55:18;;;;;;;18.97;15.40;;;;;;;11.65;100.00;100783.81;20804652;28;20331;-62
2021/10/03 07:05:22;;;;;;;23.07;17.10;;;;;;;11.58;100.00;100779.81;20822506;28;20251;-61
2021/10/03 07:15:24;;;;;;;22.03;17.47;;;;;;;11.87;100.00;100794.06;20824384;28;20303;-60
2021/10/03 07:25:28;;;;;;;13.80;12.50;;;;;;;12.12;100.00;100785.38;20823928;28;20227;-63
2021/10/03 07:35:30;;;;;;;19.17;11.87;;;;;;;12.42;100.00;100779.88;20821804;28;20238;-59
2021/10/03 07:45:34;;;;;;;13.37;12.17;;;;;;;12.69;100.00;100772.72;20845155;28;20222;-58
2021/10/03 07:55:36;;;;;;;10.13;9.23;;;;;;;13.03;100.00;100770.50;20821735;28;20656;-58
2021/10/03 08:05:40;;;;;;;12.63;11.33;;;;;;;13.34;100.00;100779.06;20821652;28;20568;-60
2021/10/03 08:15:48;;;;;;;10.13;9.23;;;;;;;13.73;100.00;100771.91;20819764;28;20712;-63
2021/10/03 08:25:53;;;;;;;7.87;7.37;;;;;;;14.10;100.00;100772.84;20820666;28;20228;-62
2021/10/03 08:35:56;;;;;;;8.00;7.30;;;;;;;14.43;100.00;100761.50;20820831;28;20318;-57
2021/10/03 08:46:00;;;;;;;7.27;6.67;;;;;;;14.65;100.00;100750.88;20815628;28;20293;-60
2021/10/03 08:56:03;;;;;;;7.20;6.70;;;;;;;14.93;100.00;100747.00;20818095;28;20294;-65
2021/10/03 09:06:07;;;;;;;6.83;6.33;;;;;;;15.37;100.00;100740.03;20827294;28;20581;-58
2021/10/03 09:16:12;;;;;;;6.40;5.90;;;;;;;15.74;100.00;100740.75;20834297;28;20256;-58
2021/10/03 09:26:15;;;;;;;8.03;7.33;;;;;;;15.98;100.00;100743.31;20833969;28;20568;-58
2021/10/03 09:36:20;;;;;;;7.30;6.60;;;;;;;16.15;100.00;100705.13;20833321;28;20232;-62
2021/10/03 09:46:36;;;;;;;7.13;6.40;;;;;;;16.40;100.00;100706.69;20832684;28;20282;-58
2021/10/03 09:56:39;;;;;;;7.03;6.33;;;;;;;16.54;100.00;100709.91;20831621;28;20653;-58
2021/10/03 10:06:44;;;;;;;6.97;6.27;;;;;;;16.70;100.00;100709.53;20829885;28;20267;-58
2021/10/03 10:16:48;;;;;;;6.53;6.03;;;;;;;16.86;100.00;100695.63;20829989;28;20236;-59
2021/10/03 10:26:51;;;;;;;7.63;6.93;;;;;;;17.01;100.00;100699.75;20829518;28;20271;-58
2021/10/03 10:36:55;;;;;;;9.80;8.80;;;;;;;17.07;100.00;100691.09;20828746;28;20224;-58
2021/10/03 10:46:59;;;;;;;9.70;8.77;;;;;;;17.24;100.00;100676.19;20813496;28;20375;-57
2021/10/03 10:57:09;;;;;;;7.00;6.30;;;;;;;17.43;100.00;100681.69;20751036;28;20247;-59
2021/10/03 11:07:13;;;;;;;7.13;6.57;;;;;;;17.62;100.00;100692.59;20744236;28;20232;-57
2021/10/03 11:17:19;;;;;;;6.77;5.80;;;;;;;17.91;100.00;100670.28;20743192;28;20237;-58
2021/10/03 11:27:26;;;;;;;6.73;6.13;;;;;;;18.06;100.00;100682.41;20742379;28;20683;-57
2021/10/03 11:37:31;;;;;;;7.33;6.70;;;;;;;18.07;100.00;100632.81;20741403;28;20233;-57
2021/10/03 11:47:41;;;;;;;6.30;5.70;;;;;;;18.12;100.00;100646.72;20818998;28;20242;-64
2021/10/03 11:57:46;;;;;;;7.10;6.50;;;;;;;18.34;100.00;100643.81;20808675;28;20256;-61
2021/10/03 12:08:07;;;;;;;7.40;6.80;;;;;;;18.64;100.00;100637.44;20754394;28;20227;-62
2021/10/03 12:18:12;;;;;;;6.37;5.87;;;;;;;18.85;100.00;100622.91;20814992;28;20234;-61
2021/10/03 12:28:16;;;;;;;6.77;6.17;;;;;;;19.00;100.00;100630.44;20819966;28;20239;-59
2021/10/03 12:38:18;;;;;;;6.97;6.37;;;;;;;19.08;100.00;100628.88;20824088;28;20246;-59
2021/10/03 12:48:22;;;;;;;6.47;5.70;;;;;;;19.16;100.00;100632.56;20837120;28;20234;-58
2021/10/03 12:58:25;;;;;;;6.30;5.70;;;;;;;19.24;100.00;100627.25;20836200;28;20587;-62
2021/10/03 13:08:29;;;;;;;9.83;6.53;;;;;;;19.19;100.00;100613.31;20835722;28;20292;-60
2021/10/03 13:18:34;;;;;;;5.57;5.17;;;;;;;19.10;100.00;100600.66;20834531;28;20690;-60
2021/10/03 13:28:38;;;;;;;6.60;6.10;;;;;;;18.91;100.00;100606.97;20831810;28;20282;-57
2021/10/03 13:38:40;;;;;;;6.10;5.60;;;;;;;18.72;100.00;100606.97;20848392;28;20708;-64
2021/10/03 13:48:44;;;;;;;6.00;5.57;;;;;;;18.56;100.00;100595.88;20836485;28;20220;-57
2021/10/03 13:58:46;;;;;;;8.47;5.90;;;;;;;18.47;100.00;100580.53;20822576;28;20288;-56
2021/10/03 14:08:50;;;;;;;6.73;6.10;;;;;;;18.36;100.00;100579.66;20822208;28;20259;-57
2021/10/03 14:18:53;;;;;;;6.00;5.50;;;;;;;18.30;100.00;100563.16;20826250;28;20293;-58
2021/10/03 14:28:56;;;;;;;5.60;5.20;;;;;;;18.09;100.00;100571.41;20828968;28;20243;-59
2021/10/03 14:38:59;;;;;;;6.17;5.67;;;;;;;17.89;100.00;100542.66;20850150;28;20314;-65
2021/10/03 14:49:02;;;;;;;6.17;5.50;;;;;;;17.71;100.00;100538.94;20825969;28;20256;-60
2021/10/03 14:59:05;;;;;;;5.70;5.30;;;;;;;17.60;100.00;100537.19;20806840;28;20647;-59
2021/10/03 15:09:09;;;;;;;6.13;5.63;;;;;;;17.48;100.00;100541.84;20860666;28;20247;-58
2021/10/03 15:19:15;;;;;;;6.50;5.93;;;;;;;17.33;100.00;100547.75;20820763;28;20241;-62
2021/10/03 15:29:23;;;;;;;6.80;6.20;;;;;;;16.91;100.00;100534.34;20869693;28;20246;-63
2021/10/03 15:39:25;;;;;;;7.03;6.43;;;;;;;16.50;100.00;100529.81;20787241;28;20233;-63
2021/10/03 15:49:30;;;;;;;7.80;6.93;;;;;;;16.10;100.00;100543.94;20845048;28;20593;-63
2021/10/03 15:59:34;;;;;;;9.30;8.50;;;;;;;15.69;100.00;100549.22;20776546;28;20240;-62
2021/10/03 16:09:39;;;;;;;67.63;34.20;;;;;;;15.30;100.00;100559.50;20821196;28;20236;-62
2021/10/03 16:19:42;;;;;;;113.57;42.73;;;;;;;14.94;100.00;100574.03;20822124;28;20250;-62
2021/10/03 16:29:46;;;;;;;15.83;10.90;;;;;;;14.55;100.00;100567.22;20804967;28;20226;-59
2021/10/03 16:39:49;;;;;;;10.07;9.17;;;;;;;14.33;100.00;100559.94;20802413;28;20241;-60
2021/10/03 16:49:53;;;;;;;14.60;12.53;;;;;;;14.17;100.00;100572.78;20804510;28;20227;-67
2021/10/03 16:59:56;;;;;;;12.70;11.17;;;;;;;13.92;100.00;100568.41;20783846;28;20424;-67
2021/10/03 17:10:00;;;;;;;10.97;9.97;;;;;;;13.82;100.00;100578.09;20833415;28;20786;-67
2021/10/03 17:20:03;;;;;;;10.20;9.20;;;;;;;13.71;100.00;100591.44;20813636;28;20373;-69
2021/10/03 17:30:10;;;;;;;8.07;7.37;;;;;;;13.46;100.00;100594.19;20809915;28;20328;-61
2021/10/03 17:40:14;;;;;;;8.17;7.40;;;;;;;13.29;100.00;100588.19;20805440;28;20245;-65
2021/10/03 17:50:21;;;;;;;9.07;8.17;;;;;;;13.14;100.00;100581.25;20811058;28;20238;-59
2021/10/03 18:00:24;;;;;;;9.40;8.60;;;;;;;13.12;100.00;100587.66;20803149;28;20226;-59
2021/10/03 18:10:28;;;;;;;9.30;8.43;;;;;;;12.99;100.00;100593.88;20817780;28;20695;-61
2021/10/03 18:20:33;;;;;;;9.23;8.47;;;;;;;12.96;100.00;100593.22;20793223;28;20267;-60
2021/10/03 18:30:37;;;;;;;9.07;8.17;;;;;;;13.05;100.00;100605.09;20816741;28;20227;-60
2021/10/03 18:40:40;;;;;;;8.73;7.93;;;;;;;13.04;100.00;100596.22;20793978;28;20269;-61
2021/10/03 18:50:44;;;;;;;8.90;8.00;;;;;;;13.07;100.00;100574.56;20781456;28;20897;-59
2021/10/03 19:00:47;;;;;;;8.10;7.30;;;;;;;13.07;100.00;100579.94;20769360;28;20238;-60
2021/10/03 19:10:51;;;;;;;8.27;7.57;;;;;;;13.08;100.00;100572.75;20784933;28;20629;-59
2021/10/03 19:20:53;;;;;;;8.40;7.50;;;;;;;13.15;100.00;100592.84;20780901;28;20261;-59
2021/10/03 19:30:58;;;;;;;7.63;6.93;;;;;;;13.05;100.00;100589.91;20764716;28;20265;-60
2021/10/03 19:41:01;;;;;;;7.80;7.10;;;;;;;12.98;100.00;100599.34;20733358;28;20244;-61
2021/10/03 19:51:05;;;;;;;8.23;7.53;;;;;;;12.84;100.00;100596.75;20865275;28;20256;-58
2021/10/03 20:01:07;;;;;;;8.13;6.53;;;;;;;12.74;100.00;100606.38;20892372;28;20238;-61
2021/10/03 20:11:11;;;;;;;8.23;6.80;;;;;;;12.59;100.00;100594.91;20870312;28;20779;-59
2021/10/03 20:21:14;;;;;;;8.50;7.60;;;;;;;12.49;100.00;100594.69;20891859;28;20606;-59
2021/10/03 20:31:18;;;;;;;7.90;7.30;;;;;;;12.41;100.00;100591.66;20872168;28;20231;-58
2021/10/03 20:41:20;;;;;;;7.33;6.73;;;;;;;12.30;100.00;100599.56;20876552;28;20285;-59
2021/10/03 20:51:24;;;;;;;7.40;6.80;;;;;;;12.21;100.00;100589.44;20878094;28;20327;-63
2021/10/03 21:01:26;;;;;;;7.50;6.87;;;;;;;12.17;100.00;100593.31;20893416;28;20242;-63
2021/10/03 21:11:30;;;;;;;7.57;6.60;;;;;;;12.08;100.00;100594.75;20900511;28;20850;-66
2021/10/03 21:31:31;;;;;;;7.50;6.80;;;;;;;11.79;100.00;100586.00;21149580;27;21136;-58
2021/10/03 21:41:34;;;;;;;8.20;7.50;;;;;;;11.76;100.00;100582.66;21108387;28;20255;-61
2021/10/03 21:51:38;;;;;;;7.70;7.00;;;;;;;11.67;100.00;100593.91;21130357;28;20746;-58
2021/10/03 22:01:40;;;;;;;8.03;7.33;;;;;;;11.58;100.00;100595.38;21108986;28;20217;-61
2021/10/03 22:11:44;;;;;;;9.10;7.90;;;;;;;11.43;100.00;100601.69;21127999;28;20237;-59
2021/10/03 22:21:46;;;;;;;8.80;7.87;;;;;;;11.35;100.00;100598.66;21112934;28;20232;-59
2021/10/03 22:31:50;;;;;;;7.90;7.20;;;;;;;11.30;100.00;100593.56;21116852;28;20228;-60
2021/10/03 22:41:52;;;;;;;7.50;6.83;;;;;;;11.20;100.00;100608.47;21050573;27;20639;-59
2021/10/03 22:51:56;;;;;;;8.67;7.63;;;;;;;11.11;100.00;100603.69;21137091;28;20232;-59
2021/10/03 23:01:58;;;;;;;8.07;7.40;;;;;;;11.02;100.00;100585.56;21153521;27;20593;-59
2021/10/03 23:21:58;;;;;;;8.23;7.53;;;;;;;11.09;100.00;100605.63;21049809;27;20567;-58
2021/10/03 23:32:01;;;;;;;8.90;7.20;;;;;;;11.12;100.00;100608.94;21024414;27;20252;-60
2021/10/03 23:42:06;;;;;;;7.43;6.83;;;;;;;11.06;100.00;100612.00;21041278;27;20311;-64
2021/10/03 23:52:10;;;;;;;8.07;7.27;;;;;;;10.94;100.00;100612.75;21026232;27;20875;-60
